createdAt,value
2019-02-07T00:00:57.464Z,983.58
2019-02-07T00:01:57.455Z,983.59
2019-02-07T00:02:57.448Z,983.61
2019-02-07T00:03:57.488Z,983.59
2019-02-07T00:04:57.427Z,983.53
2019-02-07T00:05:57.433Z,983.59
2019-02-07T00:06:57.404Z,983.58
2019-02-07T00:07:57.395Z,983.53
2019-02-07T00:08:57.384Z,983.54
2019-02-07T00:09:57.378Z,983.55
2019-02-07T00:10:57.381Z,983.57
2019-02-07T00:11:57.448Z,983.57
2019-02-07T00:12:57.454Z,983.56
2019-02-07T00:13:57.334Z,983.59
2019-02-07T00:14:57.324Z,983.62
2019-02-07T00:15:57.311Z,983.61
2019-02-07T00:16:57.301Z,983.59
2019-02-07T00:17:57.307Z,983.56
2019-02-07T00:18:57.288Z,983.60
2019-02-07T00:19:57.273Z,983.61
2019-02-07T00:20:57.267Z,983.60
2019-02-07T00:21:57.253Z,983.55
2019-02-07T00:22:57.248Z,983.62
2019-02-07T00:23:57.258Z,983.60
2019-02-07T00:24:57.223Z,983.61
2019-02-07T00:25:57.212Z,983.67
2019-02-07T00:26:57.205Z,983.59
2019-02-07T00:27:57.197Z,983.49
2019-02-07T00:28:57.186Z,983.66
2019-02-07T00:29:57.190Z,983.57
2019-02-07T00:30:57.160Z,983.66
2019-02-07T00:31:57.157Z,983.61
2019-02-07T00:32:57.145Z,983.59
2019-02-07T00:33:57.162Z,983.57
2019-02-07T00:34:57.119Z,983.52
2019-02-07T00:35:57.122Z,983.51
2019-02-07T00:36:57.103Z,983.53
2019-02-07T00:37:57.087Z,983.49
2019-02-07T00:38:57.081Z,983.49
2019-02-07T00:39:57.068Z,983.43
2019-02-07T00:40:57.058Z,983.39
2019-02-07T00:41:57.067Z,983.38
2019-02-07T00:42:57.036Z,983.46
2019-02-07T00:43:57.029Z,983.55
2019-02-07T00:44:57.016Z,983.44
2019-02-07T00:45:57.005Z,983.41
2019-02-07T00:46:56.998Z,983.38
2019-02-07T00:47:57.006Z,983.30
2019-02-07T00:48:56.997Z,983.27
2019-02-07T00:49:56.965Z,983.24
2019-02-07T00:50:56.955Z,983.25
2019-02-07T00:51:56.948Z,983.20
2019-02-07T00:52:56.943Z,983.16
2019-02-07T00:53:56.940Z,983.19
2019-02-07T00:54:56.914Z,983.16
2019-02-07T00:55:56.904Z,983.14
2019-02-07T00:56:56.898Z,983.08
2019-02-07T00:57:56.888Z,983.12
2019-02-07T00:58:56.880Z,983.12
2019-02-07T00:59:56.874Z,983.18
2019-02-07T01:00:56.855Z,983.16
2019-02-07T01:01:56.845Z,983.09
2019-02-07T01:02:56.833Z,983.08
2019-02-07T01:03:56.819Z,983.04
2019-02-07T01:04:56.806Z,983.04
2019-02-07T01:05:56.832Z,983.07
2019-02-07T01:06:56.790Z,983.02
2019-02-07T01:07:56.777Z,982.97
2019-02-07T01:08:56.768Z,982.97
2019-02-07T01:09:56.761Z,982.95
2019-02-07T01:10:56.768Z,982.88
2019-02-07T01:11:56.748Z,982.88
2019-02-07T01:12:56.734Z,982.90
2019-02-07T01:13:56.717Z,982.87
2019-02-07T01:15:02.253Z,982.85
2019-02-07T01:15:57.698Z,982.84
2019-02-07T01:16:56.686Z,982.80
2019-02-07T01:17:56.688Z,982.77
2019-02-07T01:18:56.668Z,982.79
2019-02-07T01:19:56.672Z,982.78
2019-02-07T01:20:56.644Z,982.78
2019-02-07T01:21:56.631Z,982.79
2019-02-07T01:22:56.626Z,982.78
2019-02-07T01:23:56.657Z,982.78
2019-02-07T01:24:56.602Z,982.87
2019-02-07T01:25:56.602Z,982.75
2019-02-07T01:26:56.583Z,982.83
2019-02-07T01:27:56.572Z,982.82
2019-02-07T01:28:56.564Z,982.86
2019-02-07T01:29:56.564Z,982.76
2019-02-07T01:30:56.552Z,982.80
2019-02-07T01:31:56.531Z,982.81
2019-02-07T01:32:56.524Z,982.71
2019-02-07T01:33:56.512Z,982.76
2019-02-07T01:34:56.499Z,982.70
2019-02-07T01:35:56.513Z,982.62
2019-02-07T01:36:56.483Z,982.62
2019-02-07T01:37:56.470Z,982.69
2019-02-07T01:38:56.464Z,982.60
2019-02-07T01:39:56.451Z,982.66
2019-02-07T01:40:56.439Z,982.61
2019-02-07T01:41:56.445Z,982.59
2019-02-07T01:42:56.429Z,982.62
2019-02-07T01:43:56.414Z,982.58
2019-02-07T01:44:56.396Z,982.55
2019-02-07T01:45:56.387Z,982.57
2019-02-07T01:46:56.382Z,982.50
2019-02-07T01:47:56.393Z,982.52
2019-02-07T01:48:56.361Z,982.48
2019-02-07T01:49:56.345Z,982.47
2019-02-07T01:50:56.342Z,982.53
2019-02-07T01:51:56.332Z,982.45
2019-02-07T01:52:56.316Z,982.50
2019-02-07T01:53:56.335Z,982.52
2019-02-07T01:54:56.294Z,982.57
2019-02-07T01:55:56.282Z,982.50
2019-02-07T01:56:56.276Z,982.53
2019-02-07T01:57:56.274Z,982.47
2019-02-07T01:58:56.266Z,982.46
2019-02-07T01:59:56.285Z,982.49
2019-02-07T02:00:56.234Z,982.45
2019-02-07T02:01:56.219Z,982.40
2019-02-07T02:02:56.217Z,982.35
2019-02-07T02:03:56.205Z,982.35
2019-02-07T02:04:56.193Z,982.29
2019-02-07T02:05:56.202Z,982.32
2019-02-07T02:06:56.175Z,982.25
2019-02-07T02:07:56.164Z,982.20
2019-02-07T02:08:56.162Z,982.23
2019-02-07T02:09:56.145Z,982.23
2019-02-07T02:10:56.135Z,982.24
2019-02-07T02:11:56.173Z,982.20
2019-02-07T02:12:56.116Z,982.22
2019-02-07T02:13:56.099Z,982.18
2019-02-07T02:14:56.098Z,982.17
2019-02-07T02:15:56.077Z,982.18
2019-02-07T02:16:56.073Z,982.14
2019-02-07T02:17:56.100Z,982.19
2019-02-07T02:18:56.051Z,982.15
2019-02-07T02:19:56.037Z,982.22
2019-02-07T02:20:56.028Z,982.21
2019-02-07T02:21:56.028Z,982.21
2019-02-07T02:22:56.003Z,982.19
2019-02-07T02:23:56.022Z,982.14
2019-02-07T02:24:55.987Z,982.19
2019-02-07T02:25:55.970Z,982.15
2019-02-07T02:26:55.964Z,982.07
2019-02-07T02:27:55.960Z,982.03
2019-02-07T02:28:55.945Z,982.03
2019-02-07T02:29:55.958Z,981.99
2019-02-07T02:30:55.920Z,982.02
2019-02-07T02:31:55.977Z,981.99
2019-02-07T02:32:55.907Z,982.02
2019-02-07T02:33:55.895Z,982.08
2019-02-07T02:34:55.886Z,982.04
2019-02-07T02:35:55.883Z,982.05
2019-02-07T02:36:55.864Z,982.10
2019-02-07T02:37:55.852Z,982.12
2019-02-07T02:38:55.849Z,982.07
2019-02-07T02:39:55.835Z,982.04
2019-02-07T02:40:55.822Z,982.01
2019-02-07T02:41:55.838Z,982.08
2019-02-07T02:42:55.802Z,981.99
2019-02-07T02:43:55.793Z,982.03
2019-02-07T02:44:55.776Z,981.95
2019-02-07T02:45:55.776Z,981.94
2019-02-07T02:46:55.757Z,981.93
2019-02-07T02:47:55.771Z,981.87
2019-02-07T02:48:55.736Z,981.87
2019-02-07T02:49:55.727Z,981.87
2019-02-07T02:50:55.714Z,981.90
2019-02-07T02:51:55.730Z,981.84
2019-02-07T02:52:55.700Z,981.84
2019-02-07T02:53:55.704Z,981.94
2019-02-07T02:54:55.701Z,981.95
2019-02-07T02:55:55.685Z,981.89
2019-02-07T02:56:55.656Z,981.83
2019-02-07T02:57:55.647Z,981.88
2019-02-07T02:58:55.645Z,981.87
2019-02-07T02:59:55.652Z,981.92
2019-02-07T03:00:55.614Z,981.88
2019-02-07T03:01:55.607Z,981.93
2019-02-07T03:02:55.595Z,982.00
2019-02-07T03:03:55.585Z,981.92
2019-02-07T03:04:55.576Z,981.91
2019-02-07T03:05:55.582Z,981.84
2019-02-07T03:06:55.553Z,981.81
2019-02-07T03:07:55.553Z,981.79
2019-02-07T03:08:55.534Z,981.87
2019-02-07T03:09:55.522Z,981.83
2019-02-07T03:10:55.521Z,981.90
2019-02-07T03:11:55.518Z,981.90
2019-02-07T03:12:55.500Z,981.90
2019-02-07T03:13:55.492Z,981.88
2019-02-07T03:14:55.478Z,981.85
2019-02-07T03:15:55.491Z,981.83
2019-02-07T03:16:55.450Z,981.81
2019-02-07T03:17:55.457Z,981.83
2019-02-07T03:18:55.435Z,981.79
2019-02-07T03:19:55.442Z,981.69
2019-02-07T03:20:55.423Z,981.75
2019-02-07T03:21:55.448Z,981.79
2019-02-07T03:22:55.386Z,981.69
2019-02-07T03:23:55.399Z,981.67
2019-02-07T03:24:55.380Z,981.64
2019-02-07T03:25:55.357Z,981.64
2019-02-07T03:26:55.349Z,981.68
2019-02-07T03:27:55.341Z,981.65
2019-02-07T03:28:55.329Z,981.73
2019-02-07T03:29:55.333Z,981.77
2019-02-07T03:30:55.305Z,981.75
2019-02-07T03:31:55.312Z,981.76
2019-02-07T03:32:55.299Z,981.77
2019-02-07T03:33:55.276Z,981.81
2019-02-07T03:34:55.273Z,981.72
2019-02-07T03:35:55.277Z,981.76
2019-02-07T03:36:55.244Z,981.73
2019-02-07T03:37:55.231Z,981.71
2019-02-07T03:38:55.229Z,981.70
2019-02-07T03:39:55.225Z,981.74
2019-02-07T03:40:55.204Z,981.71
2019-02-07T03:41:55.228Z,981.75
2019-02-07T03:42:55.191Z,981.65
2019-02-07T03:43:55.176Z,981.66
2019-02-07T03:44:55.167Z,981.72
2019-02-07T03:46:02.817Z,981.66
2019-02-07T03:46:56.154Z,981.69
2019-02-07T03:47:55.130Z,981.65
2019-02-07T03:48:55.121Z,981.59
2019-02-07T03:49:55.110Z,981.63
2019-02-07T03:50:55.096Z,981.64
2019-02-07T03:51:55.088Z,981.64
2019-02-07T03:52:55.106Z,981.65
2019-02-07T03:53:55.073Z,981.61
2019-02-07T03:54:55.059Z,981.58
2019-02-07T03:55:55.062Z,981.66
2019-02-07T03:56:55.041Z,981.67
2019-02-07T03:57:55.035Z,981.66
2019-02-07T03:58:55.030Z,981.65
2019-02-07T03:59:55.008Z,981.59
2019-02-07T04:00:54.996Z,981.66
2019-02-07T04:02:02.029Z,981.66
2019-02-07T04:02:54.976Z,981.69
2019-02-07T04:03:54.968Z,981.67
2019-02-07T04:04:54.969Z,981.69
2019-02-07T04:05:54.945Z,981.58
2019-02-07T04:06:54.934Z,981.64
2019-02-07T04:07:54.927Z,981.61
2019-02-07T04:08:54.919Z,981.70
2019-02-07T04:09:54.912Z,981.67
2019-02-07T04:10:54.908Z,981.71
2019-02-07T04:11:54.883Z,981.65
2019-02-07T04:12:54.875Z,981.69
2019-02-07T04:13:54.864Z,981.71
2019-02-07T04:14:54.848Z,981.81
2019-02-07T04:15:54.839Z,981.68
2019-02-07T04:16:54.848Z,981.69
2019-02-07T04:17:54.825Z,981.66
2019-02-07T04:18:54.810Z,981.71
2019-02-07T04:19:54.800Z,981.65
2019-02-07T04:20:54.790Z,981.73
2019-02-07T04:21:54.781Z,981.71
2019-02-07T04:22:54.784Z,981.64
2019-02-07T04:23:54.759Z,981.67
2019-02-07T04:24:54.749Z,981.63
2019-02-07T04:25:54.739Z,981.63
2019-02-07T04:26:54.736Z,981.65
2019-02-07T04:27:54.723Z,981.61
2019-02-07T04:28:54.729Z,981.58
2019-02-07T04:29:54.698Z,981.68
2019-02-07T04:30:54.688Z,981.74
2019-02-07T04:31:54.679Z,981.69
2019-02-07T04:32:54.666Z,981.67
2019-02-07T04:33:54.656Z,981.67
2019-02-07T04:34:54.663Z,981.68
2019-02-07T04:35:54.644Z,981.64
2019-02-07T04:36:54.627Z,981.62
2019-02-07T04:37:54.615Z,981.65
2019-02-07T04:38:54.620Z,981.61
2019-02-07T04:39:54.595Z,981.58
2019-02-07T04:40:54.620Z,981.62
2019-02-07T04:41:54.578Z,981.58
2019-02-07T04:42:54.570Z,981.56
2019-02-07T04:43:54.557Z,981.61
2019-02-07T04:44:54.544Z,981.60
2019-02-07T04:45:54.535Z,981.58
2019-02-07T04:46:54.544Z,981.60
2019-02-07T04:47:54.516Z,981.55
2019-02-07T04:48:54.502Z,981.47
2019-02-07T04:49:54.501Z,981.51
2019-02-07T04:50:54.484Z,981.48
2019-02-07T04:51:54.471Z,981.54
2019-02-07T04:52:54.484Z,981.53
2019-02-07T04:53:54.459Z,981.51
2019-02-07T04:54:54.443Z,981.53
2019-02-07T04:55:54.434Z,981.47
2019-02-07T04:56:54.424Z,981.48
2019-02-07T04:57:54.418Z,981.49
2019-02-07T04:58:54.421Z,981.42
2019-02-07T04:59:54.391Z,981.42
2019-02-07T05:00:54.383Z,981.38
2019-02-07T05:01:54.379Z,981.40
2019-02-07T05:02:54.360Z,981.38
2019-02-07T05:03:54.359Z,981.40
2019-02-07T05:04:54.353Z,981.37
2019-02-07T05:05:54.335Z,981.40
2019-02-07T05:06:54.319Z,981.34
2019-02-07T05:07:54.312Z,981.37
2019-02-07T05:08:54.299Z,981.36
2019-02-07T05:09:54.291Z,981.41
2019-02-07T05:10:54.299Z,981.38
2019-02-07T05:11:54.275Z,981.41
2019-02-07T05:12:54.255Z,981.34
2019-02-07T05:13:54.248Z,981.37
2019-02-07T05:14:54.240Z,981.32
2019-02-07T05:15:54.230Z,981.33
2019-02-07T05:16:54.235Z,981.34
2019-02-07T05:17:54.208Z,981.29
2019-02-07T05:18:54.198Z,981.29
2019-02-07T05:19:54.193Z,981.26
2019-02-07T05:20:54.185Z,981.27
2019-02-07T05:21:54.168Z,981.28
2019-02-07T05:22:54.171Z,981.30
2019-02-07T05:23:54.146Z,981.30
2019-02-07T05:24:54.136Z,981.32
2019-02-07T05:25:54.129Z,981.36
2019-02-07T05:26:54.127Z,981.37
2019-02-07T05:27:54.107Z,981.35
2019-02-07T05:28:54.120Z,981.33
2019-02-07T05:29:54.090Z,981.35
2019-02-07T05:30:54.079Z,981.40
2019-02-07T05:31:54.065Z,981.40
2019-02-07T05:32:54.055Z,981.32
2019-02-07T05:33:54.045Z,981.37
2019-02-07T05:34:54.224Z,981.38
2019-02-07T05:35:54.039Z,981.32
2019-02-07T05:36:54.017Z,981.35
2019-02-07T05:37:54.088Z,981.39
2019-02-07T05:38:53.991Z,981.36
2019-02-07T05:39:53.981Z,981.37
2019-02-07T05:40:53.988Z,981.34
2019-02-07T05:41:53.962Z,981.35
2019-02-07T05:42:53.953Z,981.44
2019-02-07T05:43:53.940Z,981.37
2019-02-07T05:44:53.930Z,981.38
2019-02-07T05:45:54.042Z,981.33
2019-02-07T05:46:53.926Z,981.33
2019-02-07T05:47:53.898Z,981.29
2019-02-07T05:48:53.891Z,981.25
2019-02-07T05:49:53.874Z,981.30
2019-02-07T05:50:53.871Z,981.25
2019-02-07T05:51:53.858Z,981.32
2019-02-07T05:52:53.868Z,981.21
2019-02-07T05:53:53.839Z,981.26
2019-02-07T05:54:53.829Z,981.23
2019-02-07T05:55:53.827Z,981.24
2019-02-07T05:56:53.811Z,981.24
2019-02-07T05:57:53.808Z,981.25
2019-02-07T05:58:53.805Z,981.14
2019-02-07T05:59:53.782Z,981.22
2019-02-07T06:00:53.768Z,981.24
2019-02-07T06:01:53.757Z,981.16
2019-02-07T06:02:53.742Z,981.22
2019-02-07T06:03:53.736Z,981.24
2019-02-07T06:04:53.739Z,981.24
2019-02-07T06:05:53.718Z,981.22
2019-02-07T06:06:53.707Z,981.18
2019-02-07T06:07:53.749Z,981.15
2019-02-07T06:08:53.684Z,981.21
2019-02-07T06:09:53.674Z,981.24
2019-02-07T06:10:53.688Z,981.18
2019-02-07T06:11:53.709Z,981.16
2019-02-07T06:12:53.649Z,981.13
2019-02-07T06:13:53.635Z,981.10
2019-02-07T06:14:53.625Z,981.14
2019-02-07T06:15:53.615Z,981.11
2019-02-07T06:17:02.338Z,981.07
2019-02-07T06:17:54.623Z,981.07
2019-02-07T06:18:53.586Z,981.10
2019-02-07T06:19:53.572Z,981.05
2019-02-07T06:20:53.562Z,981.07
2019-02-07T06:21:53.553Z,981.03
2019-02-07T06:22:53.557Z,981.04
2019-02-07T06:23:53.636Z,981.01
2019-02-07T06:24:53.521Z,981.06
2019-02-07T06:25:53.516Z,981.04
2019-02-07T06:26:53.503Z,981.04
2019-02-07T06:27:53.491Z,980.96
2019-02-07T06:28:53.501Z,981.02
2019-02-07T06:29:53.474Z,981.03
2019-02-07T06:30:53.463Z,981.08
2019-02-07T06:31:53.451Z,981.13
2019-02-07T06:32:53.445Z,980.94
2019-02-07T06:33:53.424Z,980.93
2019-02-07T06:34:53.433Z,980.93
2019-02-07T06:35:53.411Z,980.98
2019-02-07T06:36:53.398Z,980.93
2019-02-07T06:37:53.392Z,980.87
2019-02-07T06:38:53.379Z,980.93
2019-02-07T06:39:53.370Z,980.92
2019-02-07T06:40:53.374Z,980.97
2019-02-07T06:41:53.353Z,980.90
2019-02-07T06:42:53.335Z,981.02
2019-02-07T06:43:53.334Z,980.90
2019-02-07T06:44:53.318Z,980.92
2019-02-07T06:45:53.309Z,980.88
2019-02-07T06:46:53.312Z,980.87
2019-02-07T06:47:53.305Z,980.92
2019-02-07T06:48:53.273Z,980.82
2019-02-07T06:49:53.266Z,980.81
2019-02-07T06:50:53.256Z,980.88
2019-02-07T06:51:53.247Z,980.89
2019-02-07T06:52:53.269Z,980.79
2019-02-07T06:53:53.226Z,980.83
2019-02-07T06:54:53.217Z,980.86
2019-02-07T06:55:53.223Z,980.86
2019-02-07T06:56:53.226Z,980.86
2019-02-07T06:57:53.186Z,980.82
2019-02-07T06:58:55.186Z,980.80
2019-02-07T06:59:53.164Z,980.71
2019-02-07T07:00:53.165Z,980.75
2019-02-07T07:01:53.145Z,980.75
2019-02-07T07:02:53.138Z,980.74
2019-02-07T07:03:53.126Z,980.78
2019-02-07T07:04:53.148Z,980.77
2019-02-07T07:05:53.100Z,980.78
2019-02-07T07:06:53.094Z,980.81
2019-02-07T07:07:53.106Z,980.90
2019-02-07T07:08:53.077Z,980.82
2019-02-07T07:09:53.109Z,980.77
2019-02-07T07:10:53.073Z,980.78
2019-02-07T07:11:53.039Z,980.76
2019-02-07T07:12:53.032Z,980.75
2019-02-07T07:13:53.026Z,980.75
2019-02-07T07:14:53.013Z,980.80
2019-02-07T07:15:53.001Z,980.78
2019-02-07T07:16:53.007Z,980.72
2019-02-07T07:17:52.981Z,980.73
2019-02-07T07:18:52.971Z,980.68
2019-02-07T07:19:52.962Z,980.67
2019-02-07T07:20:52.953Z,980.72
2019-02-07T07:21:52.940Z,980.72
2019-02-07T07:22:52.946Z,980.70
2019-02-07T07:23:52.920Z,980.71
2019-02-07T07:24:52.908Z,980.71
2019-02-07T07:25:52.901Z,980.76
2019-02-07T07:26:52.890Z,980.77
2019-02-07T07:27:52.877Z,980.71
2019-02-07T07:28:52.881Z,980.70
2019-02-07T07:29:52.857Z,980.79
2019-02-07T07:30:52.856Z,980.72
2019-02-07T07:31:52.839Z,980.74
2019-02-07T07:32:52.826Z,980.71
2019-02-07T07:33:52.816Z,980.74
2019-02-07T07:34:52.826Z,980.73
2019-02-07T07:35:52.797Z,980.74
2019-02-07T07:36:52.788Z,980.77
2019-02-07T07:37:52.775Z,980.66
2019-02-07T07:38:52.765Z,980.71
2019-02-07T07:39:52.755Z,980.70
2019-02-07T07:40:52.766Z,980.67
2019-02-07T07:41:52.734Z,980.67
2019-02-07T07:42:52.727Z,980.68
2019-02-07T07:43:52.717Z,980.71
2019-02-07T07:44:52.739Z,980.72
2019-02-07T07:45:52.692Z,980.68
2019-02-07T07:46:52.698Z,980.64
2019-02-07T07:47:52.673Z,980.54
2019-02-07T07:48:52.663Z,980.58
2019-02-07T07:49:52.651Z,980.55
2019-02-07T07:50:52.641Z,980.59
2019-02-07T07:51:52.631Z,980.54
2019-02-07T07:52:52.634Z,980.50
2019-02-07T07:53:52.611Z,980.61
2019-02-07T07:54:52.599Z,980.51
2019-02-07T07:55:52.589Z,980.54
2019-02-07T07:56:52.579Z,980.52
2019-02-07T07:57:52.567Z,980.49
2019-02-07T07:58:52.573Z,980.53
2019-02-07T07:59:52.548Z,980.51
2019-02-07T08:00:52.535Z,980.58
2019-02-07T08:01:52.526Z,980.53
2019-02-07T08:02:52.516Z,980.42
2019-02-07T08:03:52.503Z,980.45
2019-02-07T08:04:52.527Z,980.45
2019-02-07T08:05:53.483Z,980.40
2019-02-07T08:06:52.475Z,980.36
2019-02-07T08:07:52.465Z,980.34
2019-02-07T08:08:52.456Z,980.33
2019-02-07T08:09:52.443Z,980.40
2019-02-07T08:10:52.448Z,980.41
2019-02-07T08:11:52.422Z,980.39
2019-02-07T08:12:52.418Z,980.43
2019-02-07T08:13:52.399Z,980.43
2019-02-07T08:14:52.388Z,980.36
2019-02-07T08:15:52.378Z,980.30
2019-02-07T08:16:52.385Z,980.38
2019-02-07T08:17:52.356Z,980.35
2019-02-07T08:18:52.350Z,980.32
2019-02-07T08:19:52.337Z,980.29
2019-02-07T08:20:52.325Z,980.31
2019-02-07T08:21:52.318Z,980.30
2019-02-07T08:22:52.318Z,980.30
2019-02-07T08:23:52.295Z,980.23
2019-02-07T08:24:52.289Z,980.26
2019-02-07T08:25:52.273Z,980.27
2019-02-07T08:26:52.264Z,980.33
2019-02-07T08:27:52.254Z,980.27
2019-02-07T08:28:52.258Z,980.35
2019-02-07T08:29:52.233Z,980.28
2019-02-07T08:30:52.222Z,980.31
2019-02-07T08:31:52.215Z,980.28
2019-02-07T08:32:52.203Z,980.31
2019-02-07T08:33:52.197Z,980.30
2019-02-07T08:34:52.200Z,980.18
2019-02-07T08:35:52.171Z,980.16
2019-02-07T08:36:52.161Z,980.32
2019-02-07T08:37:52.151Z,980.22
2019-02-07T08:38:52.143Z,980.26
2019-02-07T08:39:52.136Z,980.28
2019-02-07T08:40:52.152Z,980.31
2019-02-07T08:41:52.108Z,980.32
2019-02-07T08:42:52.100Z,980.30
2019-02-07T08:43:52.109Z,980.34
2019-02-07T08:44:54.983Z,980.34
2019-02-07T08:45:52.072Z,980.34
2019-02-07T08:46:52.094Z,980.35
2019-02-07T08:47:58.600Z,980.28
2019-02-07T08:48:53.061Z,980.28
2019-02-07T08:49:52.032Z,980.27
2019-02-07T08:50:52.019Z,980.24
2019-02-07T08:51:52.015Z,980.28
2019-02-07T08:52:52.018Z,980.32
2019-02-07T08:53:51.986Z,980.31
2019-02-07T08:54:51.977Z,980.25
2019-02-07T08:55:51.964Z,980.23
2019-02-07T08:56:51.955Z,980.21
2019-02-07T08:57:51.947Z,980.22
2019-02-07T08:58:51.947Z,980.21
2019-02-07T08:59:51.922Z,980.20
2019-02-07T09:00:51.913Z,980.28
2019-02-07T09:01:51.903Z,980.23
2019-02-07T09:02:52.211Z,980.20
2019-02-07T09:03:51.881Z,980.18
2019-02-07T09:04:51.889Z,980.12
2019-02-07T09:05:51.862Z,980.14
2019-02-07T09:06:51.849Z,980.12
2019-02-07T09:07:51.842Z,980.06
2019-02-07T09:08:51.830Z,980.09
2019-02-07T09:09:51.820Z,980.16
2019-02-07T09:10:51.827Z,980.09
2019-02-07T09:11:51.798Z,980.11
2019-02-07T09:12:51.792Z,980.15
2019-02-07T09:13:53.778Z,980.10
2019-02-07T09:14:51.770Z,980.09
2019-02-07T09:15:51.758Z,980.02
2019-02-07T09:16:51.760Z,980.12
2019-02-07T09:17:51.735Z,980.08
2019-02-07T09:18:51.724Z,980.03
2019-02-07T09:19:51.715Z,980.00
2019-02-07T09:20:51.703Z,980.01
2019-02-07T09:21:51.696Z,979.99
2019-02-07T09:22:51.702Z,979.98
2019-02-07T09:23:51.672Z,980.03
2019-02-07T09:24:51.663Z,979.87
2019-02-07T09:25:51.650Z,979.95
2019-02-07T09:26:51.640Z,979.91
2019-02-07T09:27:51.630Z,979.92
2019-02-07T09:28:51.634Z,979.94
2019-02-07T09:29:51.608Z,979.95
2019-02-07T09:30:51.599Z,979.90
2019-02-07T09:31:51.589Z,979.89
2019-02-07T09:32:51.579Z,979.91
2019-02-07T09:33:51.567Z,979.86
2019-02-07T09:34:51.573Z,979.88
2019-02-07T09:35:51.547Z,979.98
2019-02-07T09:36:51.535Z,979.94
2019-02-07T09:37:51.528Z,979.97
2019-02-07T09:38:51.521Z,980.02
2019-02-07T09:39:51.506Z,980.01
2019-02-07T09:40:51.509Z,979.95
2019-02-07T09:41:51.487Z,979.97
2019-02-07T09:42:51.472Z,979.99
2019-02-07T09:43:51.462Z,979.97
2019-02-07T09:44:51.454Z,979.96
2019-02-07T09:45:51.443Z,979.92
2019-02-07T09:46:51.450Z,979.98
2019-02-07T09:47:51.421Z,980.01
2019-02-07T09:48:51.411Z,979.95
2019-02-07T09:49:51.398Z,979.97
2019-02-07T09:50:51.392Z,980.02
2019-02-07T09:51:51.377Z,979.92
2019-02-07T09:52:51.392Z,980.00
2019-02-07T09:53:51.356Z,980.02
2019-02-07T09:54:51.346Z,979.97
2019-02-07T09:55:51.337Z,979.98
2019-02-07T09:56:51.327Z,979.98
2019-02-07T09:57:51.319Z,979.99
2019-02-07T09:58:51.329Z,980.00
2019-02-07T09:59:51.296Z,980.03
2019-02-07T10:00:51.285Z,979.99
2019-02-07T10:01:51.275Z,980.02
2019-02-07T10:02:58.306Z,980.02
2019-02-07T10:03:51.253Z,979.97
2019-02-07T10:04:51.256Z,980.05
2019-02-07T10:05:51.234Z,980.10
2019-02-07T10:06:51.224Z,980.07
2019-02-07T10:07:51.218Z,980.09
2019-02-07T10:08:51.201Z,980.04
2019-02-07T10:09:51.192Z,980.13
2019-02-07T10:10:51.199Z,980.12
2019-02-07T10:11:51.202Z,980.11
2019-02-07T10:12:51.163Z,980.11
2019-02-07T10:13:51.154Z,980.13
2019-02-07T10:14:51.144Z,980.20
2019-02-07T10:15:51.132Z,980.20
2019-02-07T10:16:51.134Z,980.16
2019-02-07T10:17:51.115Z,980.17
2019-02-07T10:18:51.101Z,980.18
2019-02-07T10:19:51.100Z,980.16
2019-02-07T10:20:51.091Z,980.12
2019-02-07T10:21:51.071Z,980.15
2019-02-07T10:22:51.079Z,980.17
2019-02-07T10:23:51.047Z,980.24
2019-02-07T10:24:51.041Z,980.14
2019-02-07T10:25:51.525Z,980.06
2019-02-07T10:26:51.018Z,980.18
2019-02-07T10:27:51.007Z,980.20
2019-02-07T10:28:51.012Z,980.22
2019-02-07T10:29:50.989Z,980.21
2019-02-07T10:30:50.970Z,980.23
2019-02-07T10:31:50.964Z,980.24
2019-02-07T10:32:50.958Z,980.20
2019-02-07T10:33:50.950Z,980.14
2019-02-07T10:34:50.957Z,980.24
2019-02-07T10:35:50.923Z,980.22
2019-02-07T10:36:50.914Z,980.16
2019-02-07T10:37:50.906Z,980.20
2019-02-07T10:38:50.897Z,980.19
2019-02-07T10:39:50.884Z,980.18
2019-02-07T10:40:50.890Z,980.20
2019-02-07T10:41:50.858Z,980.20
2019-02-07T10:42:50.852Z,980.20
2019-02-07T10:43:50.842Z,980.15
2019-02-07T10:44:50.839Z,980.12
2019-02-07T10:45:50.819Z,980.19
2019-02-07T10:46:50.823Z,980.15
2019-02-07T10:47:50.797Z,980.16
2019-02-07T10:48:50.787Z,980.21
2019-02-07T10:49:58.952Z,980.20
2019-02-07T10:50:51.778Z,980.17
2019-02-07T10:51:50.759Z,980.27
2019-02-07T10:52:50.771Z,980.18
2019-02-07T10:53:50.736Z,980.20
2019-02-07T10:54:50.730Z,980.16
2019-02-07T10:55:50.714Z,980.16
2019-02-07T10:56:50.705Z,980.07
2019-02-07T10:57:50.701Z,980.10
2019-02-07T10:58:50.704Z,980.10
2019-02-07T10:59:50.673Z,980.09
2019-02-07T11:00:50.663Z,980.03
2019-02-07T11:01:50.659Z,980.12
2019-02-07T11:02:50.647Z,980.00
2019-02-07T11:03:50.630Z,979.97
2019-02-07T11:04:50.634Z,979.96
2019-02-07T11:05:50.610Z,979.90
2019-02-07T11:06:50.601Z,979.99
2019-02-07T11:07:50.592Z,979.94
2019-02-07T11:08:50.579Z,979.94
2019-02-07T11:09:50.573Z,979.95
2019-02-07T11:10:50.659Z,979.85
2019-02-07T11:11:50.550Z,979.86
2019-02-07T11:12:50.531Z,979.86
2019-02-07T11:13:50.528Z,979.90
2019-02-07T11:14:50.518Z,979.80
2019-02-07T11:15:50.505Z,979.82
2019-02-07T11:16:50.515Z,979.82
2019-02-07T11:17:50.492Z,979.73
2019-02-07T11:18:55.648Z,979.78
2019-02-07T11:19:51.461Z,979.77
2019-02-07T11:20:50.446Z,979.72
2019-02-07T11:21:50.439Z,979.77
2019-02-07T11:22:50.450Z,979.73
2019-02-07T11:23:50.417Z,979.68
2019-02-07T11:24:50.404Z,979.68
2019-02-07T11:25:50.398Z,979.71
2019-02-07T11:26:50.382Z,979.66
2019-02-07T11:27:50.385Z,979.56
2019-02-07T11:28:50.382Z,979.66
2019-02-07T11:29:50.360Z,979.68
2019-02-07T11:30:50.356Z,979.59
2019-02-07T11:31:50.337Z,979.63
2019-02-07T11:32:50.321Z,979.58
2019-02-07T11:33:50.314Z,979.58
2019-02-07T11:34:50.324Z,979.56
2019-02-07T11:35:50.288Z,979.56
2019-02-07T11:36:54.091Z,979.48
2019-02-07T11:37:50.271Z,979.54
2019-02-07T11:38:50.258Z,979.44
2019-02-07T11:39:50.258Z,979.47
2019-02-07T11:40:50.261Z,979.53
2019-02-07T11:41:50.226Z,979.48
2019-02-07T11:42:50.218Z,979.49
2019-02-07T11:43:50.206Z,979.52
2019-02-07T11:44:50.750Z,979.43
2019-02-07T11:45:50.184Z,979.52
2019-02-07T11:46:50.209Z,979.56
2019-02-07T11:47:50.166Z,979.48
2019-02-07T11:48:50.152Z,979.46
2019-02-07T11:49:50.146Z,979.39
2019-02-07T11:50:50.133Z,979.44
2019-02-07T11:51:50.146Z,979.44
2019-02-07T11:52:50.161Z,979.42
2019-02-07T11:53:50.102Z,979.37
2019-02-07T11:54:50.092Z,979.41
2019-02-07T11:55:50.083Z,979.39
2019-02-07T11:56:50.069Z,979.39
2019-02-07T11:57:50.060Z,979.37
2019-02-07T11:58:50.062Z,979.38
2019-02-07T11:59:50.037Z,979.35
2019-02-07T12:00:50.051Z,979.35
2019-02-07T12:01:50.018Z,979.40
2019-02-07T12:02:50.009Z,979.41
2019-02-07T12:03:49.996Z,979.34
2019-02-07T12:04:50.002Z,979.43
2019-02-07T12:05:49.976Z,979.44
2019-02-07T12:06:49.967Z,979.43
2019-02-07T12:07:49.954Z,979.46
2019-02-07T12:08:49.944Z,979.41
2019-02-07T12:09:49.935Z,979.39
2019-02-07T12:10:50.030Z,979.41
2019-02-07T12:11:49.916Z,979.42
2019-02-07T12:12:49.909Z,979.34
2019-02-07T12:13:49.939Z,979.42
2019-02-07T12:14:49.877Z,979.39
2019-02-07T12:15:49.868Z,979.31
2019-02-07T12:16:49.884Z,979.38
2019-02-07T12:17:49.856Z,979.35
2019-02-07T12:18:49.839Z,979.37
2019-02-07T12:19:49.830Z,979.42
2019-02-07T12:20:49.814Z,979.42
2019-02-07T12:21:49.810Z,979.37
2019-02-07T12:22:49.815Z,979.38
2019-02-07T12:23:49.788Z,979.36
2019-02-07T12:24:49.778Z,979.37
2019-02-07T12:25:49.766Z,979.37
2019-02-07T12:26:49.756Z,979.31
2019-02-07T12:27:49.754Z,979.35
2019-02-07T12:28:49.763Z,979.31